createdAt,value
2022-12-28T00:01:31.014Z,99148.28
2022-12-28T00:04:03.178Z,99131.66
2022-12-28T00:06:30.196Z,99139.53
2022-12-28T00:08:57.429Z,99121.13
2022-12-28T00:11:27.692Z,99130.78
2022-12-28T00:14:01.064Z,99129.81
2022-12-28T00:16:34.063Z,99113.25
2022-12-28T00:19:02.997Z,99116.84
2022-12-28T00:21:29.763Z,99097.59
2022-12-28T00:23:58.702Z,99105.41
2022-12-28T00:26:27.483Z,99101.91
2022-12-28T00:28:58.342Z,99102.75
2022-12-28T00:31:28.714Z,99098.41
2022-12-28T00:33:55.296Z,99099.25
2022-12-28T00:36:21.802Z,99095.75
2022-12-28T00:38:48.275Z,99096.53
2022-12-28T00:41:14.750Z,99090.41
2022-12-28T00:43:41.286Z,99090.25
2022-12-28T00:46:08.551Z,99091.19
2022-12-28T00:48:35.258Z,99074.59
2022-12-28T00:51:12.209Z,99072.88
2022-12-28T00:53:39.502Z,99068.50
2022-12-28T00:56:12.137Z,99055.44
2022-12-28T00:58:39.123Z,99045.94
2022-12-28T01:01:11.082Z,99034.63
2022-12-28T01:03:37.635Z,99037.22
2022-12-28T01:06:09.049Z,99024.03
2022-12-28T01:08:39.588Z,99019.75
2022-12-28T01:11:17.836Z,99013.56
2022-12-28T01:13:44.562Z,99004.03
2022-12-28T01:16:20.480Z,99001.41
2022-12-28T01:18:48.000Z,99003.19
2022-12-28T01:21:20.525Z,98977.97
2022-12-28T01:23:48.404Z,99001.47
2022-12-28T01:26:16.342Z,98981.31
2022-12-28T01:28:43.092Z,98998.94
2022-12-28T01:31:12.819Z,98996.25
2022-12-28T01:33:39.911Z,98995.41
2022-12-28T01:36:10.365Z,98959.66
2022-12-28T01:38:36.984Z,98950.06
2022-12-28T01:41:07.241Z,98945.63
2022-12-28T01:43:39.432Z,98938.56
2022-12-28T01:46:06.315Z,98923.69
2022-12-28T01:48:35.336Z,98918.44
2022-12-28T01:51:01.851Z,98918.53
2022-12-28T01:53:28.534Z,98920.28
2022-12-28T01:55:55.094Z,98905.47
2022-12-28T01:58:26.303Z,98914.25
2022-12-28T02:00:52.852Z,98899.47
2022-12-28T02:03:25.964Z,98909.19
2022-12-28T02:05:55.920Z,98903.03
2022-12-28T02:08:29.483Z,98900.41
2022-12-28T02:10:56.214Z,98896.09
2022-12-28T02:13:24.619Z,98884.75
2022-12-28T02:15:51.740Z,98880.38
2022-12-28T02:18:20.571Z,98881.25
2022-12-28T02:21:17.525Z,98872.47
2022-12-28T02:23:59.188Z,98874.34
2022-12-28T02:26:35.477Z,98873.44
2022-12-28T02:29:32.759Z,98859.50
2022-12-28T02:32:39.936Z,98846.38
2022-12-28T02:35:39.192Z,98837.69
2022-12-28T02:38:20.141Z,98825.34
2022-12-28T02:40:56.046Z,98836.88
2022-12-28T02:43:22.564Z,98832.50
2022-12-28T02:46:08.623Z,98820.25
2022-12-28T02:49:01.869Z,98812.41
2022-12-28T02:52:03.469Z,98801.06
2022-12-28T02:55:15.995Z,98810.69
2022-12-28T02:58:08.739Z,98812.41
2022-12-28T03:01:09.211Z,98813.34
2022-12-28T03:03:50.827Z,98787.09
2022-12-28T03:07:01.108Z,98794.94
2022-12-28T03:10:09.058Z,98780.06
2022-12-28T03:12:50.921Z,98791.47
2022-12-28T03:15:32.174Z,98770.50
2022-12-28T03:18:26.665Z,98796.69
2022-12-28T03:21:15.213Z,98787.09
2022-12-28T03:24:03.583Z,98785.38
2022-12-28T03:26:51.945Z,98779.34
2022-12-28T03:29:41.231Z,98769.78
2022-12-28T03:32:09.003Z,98775.94
2022-12-28T03:34:35.752Z,98766.31
2022-12-28T03:37:25.757Z,98761.97
2022-12-28T03:40:06.540Z,98773.31
2022-12-28T03:43:00.402Z,98767.19
2022-12-28T03:45:47.441Z,98768.91
2022-12-28T03:48:15.923Z,98754.06
2022-12-28T03:50:45.671Z,98746.19
2022-12-28T03:53:12.443Z,98740.88
2022-12-28T03:55:40.462Z,98733.88
2022-12-28T03:58:07.113Z,98728.59
2022-12-28T04:00:34.211Z,98715.44
2022-12-28T04:03:00.828Z,98717.25
2022-12-28T04:05:27.379Z,98715.59
2022-12-28T04:07:53.946Z,98687.66
2022-12-28T04:10:20.418Z,98686.81
2022-12-28T04:12:55.777Z,98689.41
2022-12-28T04:15:22.326Z,98665.78
2022-12-28T04:17:48.884Z,98680.69
2022-12-28T04:20:15.457Z,98656.25
2022-12-28T04:22:41.928Z,98650.19
2022-12-28T04:25:08.642Z,98666.03
2022-12-28T04:27:35.136Z,98661.72
2022-12-28T04:30:01.751Z,98669.63
2022-12-28T04:32:29.312Z,98660.88
2022-12-28T04:34:55.788Z,98649.50
2022-12-28T04:37:22.235Z,98642.53
2022-12-28T04:39:55.420Z,98638.13
2022-12-28T04:42:25.054Z,98629.38
2022-12-28T04:44:51.632Z,98630.25
2022-12-28T04:47:18.073Z,98621.44
2022-12-28T04:49:44.673Z,98613.53
2022-12-28T04:52:11.173Z,98597.75
2022-12-28T04:54:37.674Z,98596.00
2022-12-28T04:57:04.217Z,98585.53
2022-12-28T04:59:30.692Z,98602.19
2022-12-28T05:01:57.320Z,98607.41
2022-12-28T05:04:26.528Z,98600.38
2022-12-28T05:06:53.001Z,98577.63
2022-12-28T05:09:19.590Z,98570.63
2022-12-28T05:11:47.082Z,98561.03
2022-12-28T05:14:13.636Z,98554.16
2022-12-28T05:16:40.279Z,98534.06
2022-12-28T05:19:06.809Z,98529.66
2022-12-28T05:21:33.335Z,98507.88
2022-12-28T05:23:59.908Z,98513.28
2022-12-28T05:26:29.055Z,98506.31
2022-12-28T05:28:56.887Z,98483.66
2022-12-28T05:31:23.684Z,98468.88
2022-12-28T05:33:50.286Z,98470.59
2022-12-28T05:36:18.814Z,98467.13
2022-12-28T05:38:46.272Z,98446.16
2022-12-28T05:41:18.741Z,98428.66
2022-12-28T05:43:46.317Z,98418.22
2022-12-28T05:46:21.802Z,98441.00
2022-12-28T05:48:48.675Z,98432.28
2022-12-28T05:51:18.214Z,98420.13
2022-12-28T05:53:45.266Z,98436.75
2022-12-28T05:56:14.832Z,98442.88
2022-12-28T05:58:45.762Z,98412.28
2022-12-28T06:01:18.251Z,98428.13
2022-12-28T06:03:46.422Z,98422.00
2022-12-28T06:06:16.350Z,98390.50
2022-12-28T06:08:44.245Z,98411.53
2022-12-28T06:11:13.831Z,98426.41
2022-12-28T06:13:40.328Z,98417.72
2022-12-28T06:16:07.094Z,98419.53
2022-12-28T06:18:34.309Z,98434.38
2022-12-28T06:21:28.379Z,98422.94
2022-12-28T06:23:59.833Z,98444.88
2022-12-28T06:26:29.182Z,98423.00
2022-12-28T06:28:56.426Z,98433.50
2022-12-28T06:31:28.133Z,98443.13
2022-12-28T06:33:57.097Z,98435.28
2022-12-28T06:36:26.917Z,98430.91
2022-12-28T06:38:54.866Z,98450.16
2022-12-28T06:41:22.318Z,98453.66
2022-12-28T06:43:50.390Z,98463.28
2022-12-28T06:46:19.241Z,98451.88
2022-12-28T06:48:45.817Z,98450.13
2022-12-28T06:51:13.823Z,98454.50
2022-12-28T06:53:40.560Z,98473.75
2022-12-28T06:56:19.200Z,98463.28
2022-12-28T06:58:47.345Z,98437.81
2022-12-28T07:01:16.045Z,98423.91
2022-12-28T07:03:44.479Z,98426.53
2022-12-28T07:06:11.975Z,98428.31
2022-12-28T07:08:40.045Z,98430.03
2022-12-28T07:11:11.809Z,98444.03
2022-12-28T07:13:38.636Z,98427.41
2022-12-28T07:16:07.965Z,98433.50
2022-12-28T07:18:34.723Z,98430.03
2022-12-28T07:21:06.452Z,98436.19
2022-12-28T07:23:34.059Z,98430.94
2022-12-28T07:26:15.141Z,98410.81
2022-12-28T07:28:44.591Z,98417.00
2022-12-28T07:31:13.943Z,98418.81
2022-12-28T07:33:41.706Z,98413.59
2022-12-28T07:36:10.213Z,98416.22
2022-12-28T07:38:36.745Z,98415.34
2022-12-28T07:41:14.845Z,98426.72
2022-12-28T07:43:41.677Z,98397.94
2022-12-28T07:46:11.910Z,98421.59
2022-12-28T07:48:39.725Z,98426.84
2022-12-28T07:51:13.030Z,98426.84
2022-12-28T07:53:40.878Z,98425.16
2022-12-28T07:56:08.168Z,98418.16
2022-12-28T07:58:35.103Z,98419.06
2022-12-28T08:01:13.028Z,98414.69
2022-12-28T08:03:41.784Z,98419.94
2022-12-28T08:06:14.039Z,98405.97
2022-12-28T08:08:45.364Z,98404.25
2022-12-28T08:11:14.242Z,98407.69
2022-12-28T08:13:43.021Z,98406.00
2022-12-28T08:16:12.556Z,98411.25
2022-12-28T08:18:40.377Z,98407.75
2022-12-28T08:21:10.850Z,98397.25
2022-12-28T08:23:40.126Z,98404.28
2022-12-28T08:26:22.006Z,98399.03
2022-12-28T08:28:50.916Z,98399.03
2022-12-28T08:31:23.499Z,98405.16
2022-12-28T08:33:51.061Z,98406.09
2022-12-28T08:36:17.841Z,98421.00
2022-12-28T08:38:45.428Z,98403.50
2022-12-28T08:41:14.564Z,98418.41
2022-12-28T08:43:41.062Z,98432.47
2022-12-28T08:46:13.900Z,98413.19
2022-12-28T08:48:40.986Z,98404.44
2022-12-28T08:51:12.928Z,98391.31
2022-12-28T08:53:39.406Z,98402.72
2022-12-28T08:56:11.512Z,98399.25
2022-12-28T08:58:39.317Z,98387.88
2022-12-28T09:01:11.809Z,98376.50
2022-12-28T09:03:40.608Z,98380.00
2022-12-28T09:06:10.127Z,98393.16
2022-12-28T09:08:37.886Z,98380.00
2022-12-28T09:11:07.152Z,98363.38
2022-12-28T09:13:34.298Z,98360.78
2022-12-28T09:16:04.234Z,98365.19
2022-12-28T09:18:31.352Z,98358.16
2022-12-28T09:21:03.641Z,98361.72
2022-12-28T09:23:30.157Z,98367.88
2022-12-28T09:25:56.612Z,98382.75
2022-12-28T09:28:23.121Z,98346.84
2022-12-28T09:30:49.558Z,98394.19
2022-12-28T09:33:50.911Z,98378.44
2022-12-28T09:36:21.139Z,98392.50
2022-12-28T09:38:48.744Z,98395.13
2022-12-28T09:41:27.369Z,98381.09
2022-12-28T09:44:08.626Z,98388.16
2022-12-28T09:46:38.622Z,98377.59
2022-12-28T09:49:11.479Z,98381.97
2022-12-28T09:51:50.786Z,98370.56
2022-12-28T09:54:17.581Z,98376.72
2022-12-28T09:56:47.784Z,98378.47
2022-12-28T09:59:22.860Z,98369.69
2022-12-28T10:01:57.257Z,98378.50
2022-12-28T10:04:24.755Z,98367.94
2022-12-28T10:06:51.417Z,98368.81
2022-12-28T10:09:40.816Z,98371.44
2022-12-28T10:12:19.869Z,98374.97
2022-12-28T10:14:50.476Z,98353.97
2022-12-28T10:17:23.299Z,98379.44
2022-12-28T10:19:50.315Z,98373.34
2022-12-28T10:22:19.616Z,98369.00
2022-12-28T10:24:47.181Z,98375.16
2022-12-28T10:27:20.284Z,98356.72
2022-12-28T10:29:46.753Z,98376.91
2022-12-28T10:32:13.497Z,98373.41
2022-12-28T10:35:00.509Z,98362.84
2022-12-28T10:37:32.488Z,98356.69
2022-12-28T10:40:00.627Z,98370.75
2022-12-28T10:42:36.863Z,98365.50
2022-12-28T10:45:08.111Z,98369.88
2022-12-28T10:47:43.059Z,98354.09
2022-12-28T10:50:48.060Z,98350.59
2022-12-28T10:53:26.445Z,98362.81
2022-12-28T10:56:06.022Z,98352.31
2022-12-28T10:58:34.227Z,98345.31
2022-12-28T11:01:03.581Z,98350.59
2022-12-28T11:03:35.361Z,98341.81
2022-12-28T11:06:09.621Z,98328.63
2022-12-28T11:08:37.468Z,98347.03
2022-12-28T11:11:04.347Z,98330.38
2022-12-28T11:13:30.919Z,98336.53
2022-12-28T11:15:57.775Z,98331.28
2022-12-28T11:18:30.756Z,98333.91
2022-12-28T11:20:59.773Z,98335.66
2022-12-28T11:23:31.648Z,98344.44
2022-12-28T11:25:58.866Z,98341.84
2022-12-28T11:28:28.732Z,98339.22
2022-12-28T11:30:56.543Z,98330.44
2022-12-28T11:33:24.932Z,98326.91
2022-12-28T11:35:59.439Z,98334.81
2022-12-28T11:38:44.141Z,98332.19
2022-12-28T11:41:18.874Z,98316.38
2022-12-28T11:43:53.486Z,98322.56
2022-12-28T11:46:22.828Z,98314.66
2022-12-28T11:49:04.506Z,98315.53
2022-12-28T11:51:33.201Z,98330.44
2022-12-28T11:54:04.369Z,98314.63
2022-12-28T11:56:45.734Z,98301.47
2022-12-28T11:59:26.119Z,98317.25
2022-12-28T12:02:00.294Z,98304.09
2022-12-28T12:04:29.778Z,98319.94
2022-12-28T12:07:01.307Z,98300.59
2022-12-28T12:09:32.683Z,98297.06
2022-12-28T12:12:01.504Z,98299.72
2022-12-28T12:14:42.772Z,98305.88
2022-12-28T12:17:45.039Z,98296.22
2022-12-28T12:20:30.498Z,98283.94
2022-12-28T12:23:05.411Z,98284.78
2022-12-28T12:25:37.883Z,98287.44
2022-12-28T12:28:15.653Z,98263.75
2022-12-28T12:30:44.178Z,98277.78
2022-12-28T12:33:23.766Z,98257.59
2022-12-28T12:36:03.611Z,98276.91
2022-12-28T12:39:16.553Z,98263.75
2022-12-28T12:42:01.621Z,98263.75
2022-12-28T12:44:47.724Z,98276.03
2022-12-28T12:47:36.831Z,98291.84
2022-12-28T12:50:20.530Z,98279.56
2022-12-28T12:53:11.904Z,98290.97
2022-12-28T12:56:09.493Z,98296.22
2022-12-28T12:58:48.425Z,98292.72
2022-12-28T13:01:29.109Z,98251.44
2022-12-28T13:04:01.640Z,98269.91
2022-12-28T13:06:30.970Z,98276.03
2022-12-28T13:09:05.273Z,98276.03
2022-12-28T13:11:37.547Z,98245.31
2022-12-28T13:14:05.039Z,98268.13
2022-12-28T13:16:32.676Z,98274.28
2022-12-28T13:19:00.650Z,98261.13
2022-12-28T13:21:33.412Z,98249.72
2022-12-28T13:24:00.363Z,98262.88
2022-12-28T13:26:29.663Z,98237.41
2022-12-28T13:29:02.024Z,98235.66
2022-12-28T13:31:38.059Z,98225.13
2022-12-28T13:34:35.025Z,98229.53
2022-12-28T13:37:07.669Z,98196.16
2022-12-28T13:39:41.621Z,98213.72
2022-12-28T13:42:17.094Z,98220.72
2022-12-28T13:44:52.506Z,98228.63
2022-12-28T13:47:27.333Z,98223.34
2022-12-28T13:50:05.733Z,98227.78
2022-12-28T13:52:50.756Z,98215.47
2022-12-28T13:55:22.525Z,98234.75
2022-12-28T13:57:58.867Z,98239.19
2022-12-28T14:00:26.782Z,98235.66
2022-12-28T14:02:55.404Z,98234.78
2022-12-28T14:05:25.902Z,98225.13
2022-12-28T14:07:54.330Z,98244.44
2022-12-28T14:10:21.496Z,98236.53
2022-12-28T14:12:48.740Z,98229.53
2022-12-28T14:15:16.716Z,98223.38
2022-12-28T14:17:45.448Z,98225.13
2022-12-28T14:20:12.276Z,98224.25
2022-12-28T14:22:40.332Z,98208.47
2022-12-28T14:25:12.879Z,98219.88
2022-12-28T14:27:44.891Z,98226.00
2022-12-28T14:30:40.929Z,98217.22
2022-12-28T14:33:26.125Z,98206.69
2022-12-28T14:35:56.448Z,98219.84
2022-12-28T14:38:27.402Z,98219.00
2022-12-28T14:40:56.220Z,98206.69
2022-12-28T14:43:36.784Z,98200.53
2022-12-28T14:46:37.148Z,98175.09
2022-12-28T14:49:28.531Z,98204.06
2022-12-28T14:52:16.395Z,98209.31
2022-12-28T14:54:50.008Z,98209.31
2022-12-28T14:57:33.856Z,98194.38
2022-12-28T15:00:07.203Z,98204.94
2022-12-28T15:02:33.798Z,98212.84
2022-12-28T15:05:01.456Z,98211.97
2022-12-28T15:07:27.969Z,98221.63
2022-12-28T15:09:54.481Z,98219.00
2022-12-28T15:12:21.818Z,98197.91
2022-12-28T15:14:49.709Z,98210.19
2022-12-28T15:17:16.599Z,98213.72
2022-12-28T15:19:44.989Z,98222.50
2022-12-28T15:22:12.511Z,98212.84
2022-12-28T15:24:40.207Z,98218.97
2022-12-28T15:27:06.734Z,98218.09
2022-12-28T15:30:04.280Z,98215.47
2022-12-28T15:32:19.752Z,98203.16
2022-12-28T15:34:46.203Z,98219.84
2022-12-28T15:37:12.710Z,98206.69
2022-12-28T15:39:39.221Z,98228.63
2022-12-28T15:42:05.708Z,98209.31
2022-12-28T15:44:32.223Z,98152.28
2022-12-28T15:46:58.791Z,98202.31
2022-12-28T15:49:25.319Z,98201.41
2022-12-28T15:51:51.831Z,98202.28
2022-12-28T15:54:18.765Z,98203.16
2022-12-28T15:56:54.661Z,98195.28
2022-12-28T15:59:21.426Z,98198.78
2022-12-28T16:01:48.323Z,98198.78
2022-12-28T16:04:15.161Z,98200.56
2022-12-28T16:06:44.646Z,98204.06
2022-12-28T16:09:13.322Z,98203.19
2022-12-28T16:11:39.868Z,98197.91
2022-12-28T16:14:07.672Z,98217.22
2022-12-28T16:16:38.083Z,98219.84
2022-12-28T16:19:06.870Z,98208.47
2022-12-28T16:21:33.535Z,98227.75
2022-12-28T16:24:00.588Z,98204.94
2022-12-28T16:26:27.874Z,98212.84
2022-12-28T16:28:54.669Z,98214.56
2022-12-28T16:31:31.478Z,98208.44
2022-12-28T16:34:00.662Z,98207.56
2022-12-28T16:36:28.020Z,98215.47
2022-12-28T16:38:54.632Z,98200.53
2022-12-28T16:41:21.837Z,98168.97
2022-12-28T16:43:49.565Z,98203.19
2022-12-28T16:46:16.677Z,98190.03
2022-12-28T16:48:43.729Z,98181.25
2022-12-28T16:51:11.744Z,98177.72
2022-12-28T16:53:38.548Z,98161.06
2022-12-28T16:56:06.310Z,98176.84
2022-12-28T16:58:33.385Z,98181.25
2022-12-28T17:01:05.897Z,98154.94
2022-12-28T17:03:32.621Z,98149.66
2022-12-28T17:05:59.271Z,98167.19
2022-12-28T17:08:26.193Z,98164.56
2022-12-28T17:10:52.880Z,98144.41
2022-12-28T17:13:19.398Z,98125.97
2022-12-28T17:15:45.951Z,98122.47
2022-12-28T17:18:13.758Z,98090.84
2022-12-28T17:20:40.916Z,98077.69
2022-12-28T17:23:08.434Z,98089.97
2022-12-28T17:25:35.917Z,98102.28
2022-12-28T17:28:03.316Z,98101.41
2022-12-28T17:30:29.841Z,98104.91
2022-12-28T17:32:56.597Z,98078.56
2022-12-28T17:35:23.341Z,98095.22
2022-12-28T17:37:50.774Z,98082.94
2022-12-28T17:40:17.630Z,98082.09
2022-12-28T17:42:44.354Z,98081.16
2022-12-28T17:45:12.173Z,98075.91
2022-12-28T17:47:38.899Z,98064.50
2022-12-28T17:50:06.543Z,98065.38
2022-12-28T17:52:33.171Z,98073.28
2022-12-28T17:54:59.742Z,98065.34
2022-12-28T17:57:26.210Z,98058.34
2022-12-28T17:59:52.686Z,98063.63
2022-12-28T18:02:19.260Z,98051.34
2022-12-28T18:04:45.920Z,98063.66
2022-12-28T18:07:12.396Z,98062.78
2022-12-28T18:09:38.857Z,98057.50
2022-12-28T18:12:05.409Z,98048.72
2022-12-28T18:14:31.873Z,98054.88
2022-12-28T18:16:58.483Z,98045.19
2022-12-28T18:19:25.130Z,98050.47
2022-12-28T18:21:51.862Z,98051.34
2022-12-28T18:24:20.867Z,98043.47
2022-12-28T18:26:48.088Z,98040.84
2022-12-28T18:29:14.858Z,98040.81
2022-12-28T18:31:41.468Z,98045.22
2022-12-28T18:34:08.119Z,98035.56
2022-12-28T18:36:34.625Z,98022.41
2022-12-28T18:39:02.698Z,98027.66
2022-12-28T18:41:33.972Z,98019.75
2022-12-28T18:44:02.786Z,98013.59
2022-12-28T18:46:29.765Z,98034.66
2022-12-28T18:48:56.681Z,98013.59
2022-12-28T18:51:23.511Z,98011.84
2022-12-28T18:53:50.854Z,98011.81
2022-12-28T18:56:21.426Z,98011.84
2022-12-28T18:58:56.181Z,97977.59
2022-12-28T19:04:15.931Z,97991.66
2022-12-28T19:06:43.491Z,97987.25
2022-12-28T19:09:10.806Z,97984.63
2022-12-28T19:11:38.516Z,97983.72
2022-12-28T19:14:07.561Z,97964.44
2022-12-28T19:16:34.952Z,97960.91
2022-12-28T19:19:01.769Z,97951.28
2022-12-28T19:21:31.606Z,97953.94
2022-12-28T19:24:15.150Z,97955.69
2022-12-28T19:26:42.979Z,97932.00
2022-12-28T19:29:11.947Z,97946.94
2022-12-28T19:31:38.595Z,97944.28
2022-12-28T19:34:05.112Z,97946.94
2022-12-28T19:36:32.720Z,97938.13
2022-12-28T19:38:59.805Z,97933.75
2022-12-28T19:41:26.361Z,97931.13
2022-12-28T19:43:53.292Z,97917.91
2022-12-28T19:46:21.993Z,97923.16
2022-12-28T19:48:51.722Z,97934.56
2022-12-28T19:51:18.323Z,97944.22
2022-12-28T19:53:44.890Z,97918.75
2022-12-28T19:56:13.379Z,97925.78
2022-12-28T19:58:40.463Z,97924.88
2022-12-28T20:01:14.497Z,97912.59
2022-12-28T20:03:42.085Z,97911.69
2022-12-28T20:06:14.822Z,97928.34
2022-12-28T20:08:46.110Z,97919.59
2022-12-28T20:11:12.633Z,97924.88
2022-12-28T20:13:39.146Z,97917.88
2022-12-28T20:16:06.410Z,97916.16
2022-12-28T20:18:33.127Z,97912.66
2022-12-28T20:21:21.490Z,97888.97
2022-12-28T20:23:53.114Z,97884.63
2022-12-28T20:26:23.555Z,97876.72
2022-12-28T20:28:50.877Z,97872.31
2022-12-28T20:31:17.828Z,97869.69
2022-12-28T20:33:45.282Z,97873.22
2022-12-28T20:36:18.073Z,97861.75
2022-12-28T20:38:45.435Z,97860.88
2022-12-28T20:41:33.356Z,97842.41
2022-12-28T20:44:01.790Z,97842.41
2022-12-28T20:46:28.615Z,97844.19
2022-12-28T20:48:59.202Z,97839.75
2022-12-28T20:51:26.432Z,97842.38
2022-12-28T20:53:52.927Z,97830.09
2022-12-28T20:56:19.551Z,97840.59
2022-12-28T20:58:46.276Z,97823.91
2022-12-28T21:01:15.432Z,97833.56
2022-12-28T21:03:42.307Z,97817.75
2022-12-28T21:06:09.011Z,97816.88
2022-12-28T21:08:35.611Z,97821.28
2022-12-28T21:11:14.500Z,97811.59
2022-12-28T21:13:44.450Z,97810.72
2022-12-28T21:16:13.531Z,97794.03
2022-12-28T21:18:40.891Z,97799.25
2022-12-28T21:21:14.286Z,97781.69
2022-12-28T21:23:40.733Z,97801.00
2022-12-28T21:26:11.261Z,97791.34
2022-12-28T21:28:37.775Z,97771.13
2022-12-28T21:31:06.091Z,97774.63
2022-12-28T21:33:33.295Z,97748.25
2022-12-28T21:36:00.351Z,97755.28
2022-12-28T21:38:26.955Z,97767.56
2022-12-28T21:41:05.373Z,97756.09
2022-12-28T21:43:32.202Z,97737.69
2022-12-28T21:46:02.485Z,97738.53
2022-12-28T21:48:33.673Z,97742.84
2022-12-28T21:51:31.000Z,97737.56
2022-12-28T21:53:58.214Z,97739.31
2022-12-28T21:56:28.930Z,97727.91
2022-12-28T21:58:56.203Z,97702.47
2022-12-28T22:01:42.093Z,97727.94
2022-12-28T22:04:32.317Z,97704.22
2022-12-28T22:06:59.230Z,97695.44
2022-12-28T22:09:44.496Z,97718.28
2022-12-28T22:12:30.367Z,97708.63
2022-12-28T22:15:15.784Z,97693.63
2022-12-28T22:17:43.325Z,97700.66
2022-12-28T22:20:12.389Z,97707.66
2022-12-28T22:22:39.936Z,97692.78
2022-12-28T22:25:07.246Z,97699.81
2022-12-28T22:27:33.842Z,97687.47
2022-12-28T22:30:00.336Z,97669.94
2022-12-28T22:32:27.206Z,97696.31
2022-12-28T22:34:53.677Z,97687.53
2022-12-28T22:37:20.206Z,97688.41
2022-12-28T22:39:46.688Z,97679.59
2022-12-28T22:42:15.571Z,97688.34
2022-12-28T22:44:42.256Z,97690.16
2022-12-28T22:47:08.933Z,97686.66
2022-12-28T22:49:35.417Z,97691.91
2022-12-28T22:52:01.941Z,97697.22
2022-12-28T22:54:28.386Z,97663.81
2022-12-28T22:56:54.870Z,97686.69
2022-12-28T22:59:21.363Z,97680.56
2022-12-28T23:01:48.368Z,97670.03
2022-12-28T23:04:15.601Z,97681.41
2022-12-28T23:06:42.046Z,97676.16
2022-12-28T23:09:08.568Z,97677.03
2022-12-28T23:11:37.740Z,97662.91
2022-12-28T23:14:24.612Z,97655.88
2022-12-28T23:16:51.203Z,97652.31
2022-12-28T23:19:37.095Z,97655.81
2022-12-28T23:22:24.133Z,97614.47
2022-12-28T23:25:09.244Z,97658.41
2022-12-28T23:27:42.524Z,97640.84
2022-12-28T23:30:12.867Z,97635.59
2022-12-28T23:32:42.642Z,97638.19
2022-12-28T23:35:09.413Z,97639.13
2022-12-28T23:37:35.996Z,97626.81
2022-12-28T23:40:03.190Z,97640.81
2022-12-28T23:42:29.647Z,97642.59
2022-12-28T23:44:56.107Z,97630.28
2022-12-28T23:47:22.581Z,97644.34
2022-12-28T23:49:49.068Z,97638.19
2022-12-28T23:52:16.373Z,97646.94
2022-12-28T23:54:45.040Z,97632.88
2022-12-28T23:57:11.481Z,97627.56
2022-12-28T23:59:37.916Z,97631.03
